sensor_id;sensor_type;location;lat;lon;timestamp;pressure;altitude;pressure_sealevel;temperature;humidity
19210;BME280;9738;51.654;14.238;2023-02-22T00:01:32;100627.75;;;7.18;100.00
19210;BME280;9738;51.654;14.238;2023-02-22T00:04:09;100633.53;;;7.23;100.00
19210;BME280;9738;51.654;14.238;2023-02-22T00:06:35;100630.75;;;7.25;100.00
19210;BME280;9738;51.654;14.238;2023-02-22T00:09:01;100615.78;;;7.24;100.00
19210;BME280;9738;51.654;14.238;2023-02-22T00:11:27;100625.22;;;7.17;100.00
19210;BME280;9738;51.654;14.238;2023-02-22T00:13:53;100623.91;;;7.11;100.00
19210;BME280;9738;51.654;14.238;2023-02-22T00:16:22;100625.59;;;7.12;100.00
19210;BME280;9738;51.654;14.238;2023-02-22T00:18:48;100620.41;;;7.11;100.00
19210;BME280;9738;51.654;14.238;2023-02-22T00:21:16;100632.00;;;7.10;100.00
19210;BME280;9738;51.654;14.238;2023-02-22T00:23:44;100620.91;;;7.04;100.00
19210;BME280;9738;51.654;14.238;2023-02-22T00:26:16;100619.56;;;7.10;100.00
19210;BME280;9738;51.654;14.238;2023-02-22T00:28:48;100617.53;;;7.14;100.00
19210;BME280;9738;51.654;14.238;2023-02-22T00:31:14;100615.56;;;7.16;100.00
19210;BME280;9738;51.654;14.238;2023-02-22T00:33:40;100614.38;;;7.20;100.00
19210;BME280;9738;51.654;14.238;2023-02-22T00:36:09;100608.09;;;7.21;100.00
19210;BME280;9738;51.654;14.238;2023-02-22T00:38:35;100612.66;;;7.19;100.00
19210;BME280;9738;51.654;14.238;2023-02-22T00:41:00;100619.56;;;7.10;100.00
19210;BME280;9738;51.654;14.238;2023-02-22T00:43:27;100616.22;;;7.08;100.00
19210;BME280;9738;51.654;14.238;2023-02-22T00:45:52;100614.63;;;7.05;100.00
19210;BME280;9738;51.654;14.238;2023-02-22T00:48:18;100615.03;;;7.01;100.00
19210;BME280;9738;51.654;14.238;2023-02-22T00:50:45;100616.22;;;6.97;100.00
19210;BME280;9738;51.654;14.238;2023-02-22T00:53:13;100614.53;;;6.96;100.00
19210;BME280;9738;51.654;14.238;2023-02-22T00:55:39;100609.22;;;6.96;100.00
19210;BME280;9738;51.654;14.238;2023-02-22T00:58:07;100614.28;;;6.99;100.00
19210;BME280;9738;51.654;14.238;2023-02-22T01:00:38;100609.38;;;6.94;100.00
19210;BME280;9738;51.654;14.238;2023-02-22T01:03:05;100606.72;;;6.94;100.00
19210;BME280;9738;51.654;14.238;2023-02-22T01:05:33;100609.94;;;6.98;100.00
19210;BME280;9738;51.654;14.238;2023-02-22T01:07:59;100605.38;;;7.00;100.00
19210;BME280;9738;51.654;14.238;2023-02-22T01:10:28;100616.00;;;7.00;100.00
19210;BME280;9738;51.654;14.238;2023-02-22T01:12:55;100608.75;;;7.02;100.00
19210;BME280;9738;51.654;14.238;2023-02-22T01:15:23;100606.56;;;6.96;100.00
19210;BME280;9738;51.654;14.238;2023-02-22T01:17:51;100608.03;;;6.89;100.00
19210;BME280;9738;51.654;14.238;2023-02-22T01:20:20;100610.22;;;6.84;100.00
19210;BME280;9738;51.654;14.238;2023-02-22T01:22:48;100610.94;;;6.86;100.00
19210;BME280;9738;51.654;14.238;2023-02-22T01:25:18;100611.53;;;6.89;100.00
19210;BME280;9738;51.654;14.238;2023-02-22T01:27:45;100604.28;;;6.91;100.00
19210;BME280;9738;51.654;14.238;2023-02-22T01:30:13;100606.72;;;6.94;100.00
19210;BME280;9738;51.654;14.238;2023-02-22T01:32:40;100602.09;;;6.96;100.00
19210;BME280;9738;51.654;14.238;2023-02-22T01:35:13;100608.03;;;7.00;100.00
19210;BME280;9738;51.654;14.238;2023-02-22T01:37:40;100612.38;;;7.01;100.00
19210;BME280;9738;51.654;14.238;2023-02-22T01:40:08;100607.75;;;7.03;100.00
19210;BME280;9738;51.654;14.238;2023-02-22T01:42:35;100610.41;;;7.03;100.00
19210;BME280;9738;51.654;14.238;2023-02-22T01:45:54;100600.91;;;7.00;100.00
19210;BME280;9738;51.654;14.238;2023-02-22T01:48:29;100606.44;;;6.97;100.00
19210;BME280;9738;51.654;14.238;2023-02-22T01:51:00;100602.09;;;6.96;100.00
19210;BME280;9738;51.654;14.238;2023-02-22T01:53:34;100604.16;;;6.93;100.00
19210;BME280;9738;51.654;14.238;2023-02-22T01:56:02;100599.34;;;6.87;100.00
19210;BME280;9738;51.654;14.238;2023-02-22T01:58:32;100595.41;;;6.81;100.00
19210;BME280;9738;51.654;14.238;2023-02-22T02:00:58;100597.91;;;6.83;100.00
19210;BME280;9738;51.654;14.238;2023-02-22T02:03:34;100596.25;;;6.82;100.00
19210;BME280;9738;51.654;14.238;2023-02-22T02:06:10;100592.84;;;6.80;100.00
19210;BME280;9738;51.654;14.238;2023-02-22T02:11:23;100595.25;;;6.83;100.00
19210;BME280;9738;51.654;14.238;2023-02-22T02:13:55;100590.66;;;6.85;100.00
19210;BME280;9738;51.654;14.238;2023-02-22T02:16:33;100593.31;;;6.85;100.00
19210;BME280;9738;51.654;14.238;2023-02-22T02:18:59;100591.28;;;6.88;100.00
19210;BME280;9738;51.654;14.238;2023-02-22T02:21:39;100591.50;;;6.85;100.00
19210;BME280;9738;51.654;14.238;2023-02-22T02:27:09;100589.69;;;6.86;100.00
19210;BME280;9738;51.654;14.238;2023-02-22T02:29:50;100594.16;;;6.85;100.00
19210;BME280;9738;51.654;14.238;2023-02-22T02:35:28;100586.09;;;6.75;100.00
19210;BME280;9738;51.654;14.238;2023-02-22T02:38:06;100587.56;;;6.68;100.00
19210;BME280;9738;51.654;14.238;2023-02-22T02:40:38;100582.34;;;6.67;100.00
19210;BME280;9738;51.654;14.238;2023-02-22T02:43:20;100575.84;;;6.71;100.00
19210;BME280;9738;51.654;14.238;2023-02-22T02:46:06;100586.09;;;6.75;100.00
19210;BME280;9738;51.654;14.238;2023-02-22T02:48:38;100576.19;;;6.77;100.00
19210;BME280;9738;51.654;14.238;2023-02-22T02:51:09;100594.53;;;6.81;100.00
19210;BME280;9738;51.654;14.238;2023-02-22T02:53:39;100592.75;;;6.81;100.00
19210;BME280;9738;51.654;14.238;2023-02-22T02:56:07;100583.06;;;6.80;100.00
19210;BME280;9738;51.654;14.238;2023-02-22T02:58:33;100588.13;;;6.83;100.00
19210;BME280;9738;51.654;14.238;2023-02-22T03:01:01;100583.66;;;6.84;100.00
19210;BME280;9738;51.654;14.238;2023-02-22T03:06:23;100583.44;;;6.75;100.00
19210;BME280;9738;51.654;14.238;2023-02-22T03:09:27;100586.09;;;6.75;100.00
19210;BME280;9738;51.654;14.238;2023-02-22T03:12:10;100583.44;;;6.75;100.00
19210;BME280;9738;51.654;14.238;2023-02-22T03:15:02;100584.53;;;6.73;100.00
19210;BME280;9738;51.654;14.238;2023-02-22T03:17:40;100581.28;;;6.69;100.00
19210;BME280;9738;51.654;14.238;2023-02-22T03:20:26;100581.88;;;6.73;100.00
19210;BME280;9738;51.654;14.238;2023-02-22T03:23:02;100581.88;;;6.73;100.00
19210;BME280;9738;51.654;14.238;2023-02-22T03:25:51;100581.88;;;6.73;100.00
19210;BME280;9738;51.654;14.238;2023-02-22T03:28:20;100584.66;;;6.71;100.00
19210;BME280;9738;51.654;14.238;2023-02-22T03:30:55;100586.47;;;6.71;100.00
19210;BME280;9738;51.654;14.238;2023-02-22T03:33:38;100585.75;;;6.69;100.00
19210;BME280;9738;51.654;14.238;2023-02-22T03:36:24;100584.66;;;6.71;100.00
19210;BME280;9738;51.654;14.238;2023-02-22T03:38:52;100588.75;;;6.75;100.00
19210;BME280;9738;51.654;14.238;2023-02-22T03:41:22;100585.84;;;6.78;100.00
19210;BME280;9738;51.654;14.238;2023-02-22T03:43:56;100589.59;;;6.76;100.00
19210;BME280;9738;51.654;14.238;2023-02-22T03:46:25;100579.69;;;6.78;100.00
19210;BME280;9738;51.654;14.238;2023-02-22T03:49:14;100581.88;;;6.73;100.00
19210;BME280;9738;51.654;14.238;2023-02-22T03:51:42;100580.69;;;6.66;100.00
19210;BME280;9738;51.654;14.238;2023-02-22T03:54:09;100577.91;;;6.67;100.00
19210;BME280;9738;51.654;14.238;2023-02-22T03:57:05;100571.75;;;6.67;100.00
19210;BME280;9738;51.654;14.238;2023-02-22T03:59:33;100572.34;;;6.70;100.00
19210;BME280;9738;51.654;14.238;2023-02-22T04:01:59;100574.03;;;6.71;100.00
19210;BME280;9738;51.654;14.238;2023-02-22T04:04:25;100573.44;;;6.68;100.00
19210;BME280;9738;51.654;14.238;2023-02-22T04:06:51;100575.38;;;6.66;100.00
19210;BME280;9738;51.654;14.238;2023-02-22T04:09:17;100575.63;;;6.63;100.00
19210;BME280;9738;51.654;14.238;2023-02-22T04:11:43;100576.34;;;6.65;100.00
19210;BME280;9738;51.654;14.238;2023-02-22T04:14:10;100577.53;;;6.61;100.00
19210;BME280;9738;51.654;14.238;2023-02-22T04:16:36;100577.53;;;6.61;100.00
19210;BME280;9738;51.654;14.238;2023-02-22T04:19:02;100571.16;;;6.63;100.00
19210;BME280;9738;51.654;14.238;2023-02-22T04:21:28;100577.91;;;6.67;100.00
19210;BME280;9738;51.654;14.238;2023-02-22T04:23:54;100586.59;;;6.69;100.00
19210;BME280;9738;51.654;14.238;2023-02-22T04:26:20;100572.59;;;6.67;100.00
19210;BME280;9738;51.654;14.238;2023-02-22T04:28:46;100565.50;;;6.57;100.00
19210;BME280;9738;51.654;14.238;2023-02-22T04:31:12;100567.66;;;6.52;100.00
19210;BME280;9738;51.654;14.238;2023-02-22T04:33:37;100567.41;;;6.55;100.00
19210;BME280;9738;51.654;14.238;2023-02-22T04:36:04;100565.72;;;6.54;100.00
19210;BME280;9738;51.654;14.238;2023-02-22T04:38:30;100564.88;;;6.53;100.00
19210;BME280;9738;51.654;14.238;2023-02-22T04:40:56;100570.19;;;6.53;100.00
19210;BME280;9738;51.654;14.238;2023-02-22T04:43:22;100564.03;;;6.53;100.00
19210;BME280;9738;51.654;14.238;2023-02-22T04:45:48;100561.16;;;6.56;100.00
19210;BME280;9738;51.654;14.238;2023-02-22T04:48:13;100569.00;;;6.57;100.00
19210;BME280;9738;51.654;14.238;2023-02-22T04:50:40;100557.63;;;6.55;100.00
19210;BME280;9738;51.654;14.238;2023-02-22T04:53:05;100565.72;;;6.54;100.00
19210;BME280;9738;51.654;14.238;2023-02-22T04:55:31;100562.38;;;6.52;100.00
19210;BME280;9738;51.654;14.238;2023-02-22T04:57:59;100565.03;;;6.52;100.00
19210;BME280;9738;51.654;14.238;2023-02-22T05:00:25;100558.75;;;6.53;100.00
19210;BME280;9738;51.654;14.238;2023-02-22T05:02:51;100553.69;;;6.49;100.00
19210;BME280;9738;51.654;14.238;2023-02-22T05:05:19;100558.25;;;6.47;100.00
19210;BME280;9738;51.654;14.238;2023-02-22T05:07:47;100553.78;;;6.48;100.00
19210;BME280;9738;51.654;14.238;2023-02-22T05:10:14;100560.91;;;6.47;100.00
19210;BME280;9738;51.654;14.238;2023-02-22T05:12:40;100557.53;;;6.45;100.00
19210;BME280;9738;51.654;14.238;2023-02-22T05:15:07;100555.88;;;6.44;100.00
19210;BME280;9738;51.654;14.238;2023-02-22T05:17:33;100557.78;;;6.42;100.00
19210;BME280;9738;51.654;14.238;2023-02-22T05:20:00;100550.06;;;6.39;100.00
19210;BME280;9738;51.654;14.238;2023-02-22T05:22:28;100558.28;;;6.36;100.00
19210;BME280;9738;51.654;14.238;2023-02-22T05:24:53;100558.78;;;6.30;100.00
19210;BME280;9738;51.654;14.238;2023-02-22T05:27:22;100558.16;;;6.27;100.00
19210;BME280;9738;51.654;14.238;2023-02-22T05:29:47;100559.97;;;6.26;100.00
19210;BME280;9738;51.654;14.238;2023-02-22T05:32:13;100556.84;;;6.32;100.00
19210;BME280;9738;51.654;14.238;2023-02-22T05:34:39;100561.88;;;6.35;100.00
19210;BME280;9738;51.654;14.238;2023-02-22T05:37:06;100559.47;;;6.32;100.00
19210;BME280;9738;51.654;14.238;2023-02-22T05:39:31;100558.78;;;6.30;100.00
19210;BME280;9738;51.654;14.238;2023-02-22T05:41:58;100560.47;;;6.31;100.00
19210;BME280;9738;51.654;14.238;2023-02-22T05:44:24;100557.53;;;6.34;100.00
19210;BME280;9738;51.654;14.238;2023-02-22T05:46:50;100554.06;;;6.34;100.00
19210;BME280;9738;51.654;14.238;2023-02-22T05:49:16;100557.81;;;6.31;100.00
19210;BME280;9738;51.654;14.238;2023-02-22T05:51:42;100560.47;;;6.31;100.00
19210;BME280;9738;51.654;14.238;2023-02-22T05:54:07;100563.81;;;6.33;100.00
19210;BME280;9738;51.654;14.238;2023-02-22T05:56:33;100559.34;;;6.34;100.00
19210;BME280;9738;51.654;14.238;2023-02-22T05:59:01;100564.06;;;6.30;100.00
19210;BME280;9738;51.654;14.238;2023-02-22T06:01:27;100570.69;;;6.25;100.00
19210;BME280;9738;51.654;14.238;2023-02-22T06:03:53;100571.19;;;6.18;100.00
19210;BME280;9738;51.654;14.238;2023-02-22T06:06:19;100576.59;;;6.17;100.00
19210;BME280;9738;51.654;14.238;2023-02-22T06:08:46;100571.53;;;6.14;100.00
19210;BME280;9738;51.654;14.238;2023-02-22T06:11:12;100573.22;;;6.15;100.00
19210;BME280;9738;51.654;14.238;2023-02-22T06:13:38;100565.88;;;6.18;100.00
19210;BME280;9738;51.654;14.238;2023-02-22T06:16:05;100572.75;;;6.21;100.00
19210;BME280;9738;51.654;14.238;2023-02-22T06:18:31;100573.44;;;6.23;100.00
19210;BME280;9738;51.654;14.238;2023-02-22T06:20:58;100575.03;;;6.26;100.00
19210;BME280;9738;51.654;14.238;2023-02-22T06:23:25;100572.25;;;6.27;100.00
19210;BME280;9738;51.654;14.238;2023-02-22T06:25:51;100584.44;;;6.30;100.00
19210;BME280;9738;51.654;14.238;2023-02-22T06:28:17;100579.13;;;6.30;100.00
19210;BME280;9738;51.654;14.238;2023-02-22T06:30:43;100576.59;;;6.28;100.00
19210;BME280;9738;51.654;14.238;2023-02-22T06:33:10;100582.03;;;6.27;100.00
19210;BME280;9738;51.654;14.238;2023-02-22T06:35:35;100582.75;;;6.29;100.00
19210;BME280;9738;51.654;14.238;2023-02-22T06:38:02;100588.16;;;6.27;100.00
19210;BME280;9738;51.654;14.238;2023-02-22T06:40:28;100585.53;;;6.27;100.00
19210;BME280;9738;51.654;14.238;2023-02-22T06:42:55;100596.25;;;6.26;100.00
19210;BME280;9738;51.654;14.238;2023-02-22T06:45:21;100590.25;;;6.23;100.00
19210;BME280;9738;51.654;14.238;2023-02-22T06:47:48;100590.72;;;6.17;100.00
19210;BME280;9738;51.654;14.238;2023-02-22T06:50:22;100591.78;;;6.15;100.00
19210;BME280;9738;51.654;14.238;2023-02-22T06:52:49;100596.38;;;6.24;100.00
19210;BME280;9738;51.654;14.238;2023-02-22T06:55:18;100593.25;;;6.30;100.00
19210;BME280;9738;51.654;14.238;2023-02-22T06:57:43;100597.56;;;6.20;100.00
19210;BME280;9738;51.654;14.238;2023-02-22T07:00:10;100593.94;;;6.10;100.00
19210;BME280;9738;51.654;14.238;2023-02-22T07:02:36;100599.16;;;6.11;100.00
19210;BME280;9738;51.654;14.238;2023-02-22T07:05:03;100593.00;;;6.11;100.00
19210;BME280;9738;51.654;14.238;2023-02-22T07:07:29;100599.03;;;6.13;100.00
19210;BME280;9738;51.654;14.238;2023-02-22T07:09:55;100610.22;;;6.16;100.00
19210;BME280;9738;51.654;14.238;2023-02-22T07:12:20;100597.44;;;5.99;100.00
19210;BME280;9738;51.654;14.238;2023-02-22T07:14:47;100602.25;;;5.94;100.00
19210;BME280;9738;51.654;14.238;2023-02-22T07:17:12;100613.91;;;5.91;100.00
19210;BME280;9738;51.654;14.238;2023-02-22T07:19:38;100610.78;;;5.97;100.00
19210;BME280;9738;51.654;14.238;2023-02-22T07:22:04;100611.28;;;6.03;100.00
19210;BME280;9738;51.654;14.238;2023-02-22T07:24:30;100604.53;;;6.10;100.00
19210;BME280;9738;51.654;14.238;2023-02-22T07:26:56;100606.13;;;6.12;100.00
19210;BME280;9738;51.654;14.238;2023-02-22T07:29:22;100611.56;;;6.11;100.00
19210;BME280;9738;51.654;14.238;2023-02-22T07:31:48;100613.25;;;6.12;100.00
19210;BME280;9738;51.654;14.238;2023-02-22T07:34:14;100616.00;;;6.10;100.00
19210;BME280;9738;51.654;14.238;2023-02-22T07:36:40;100609.00;;;6.09;100.00
19210;BME280;9738;51.654;14.238;2023-02-22T07:39:06;100613.09;;;6.02;100.00
19210;BME280;9738;51.654;14.238;2023-02-22T07:41:35;100615.53;;;6.16;100.00
19210;BME280;9738;51.654;14.238;2023-02-22T07:44:02;100623.38;;;6.29;100.00
19210;BME280;9738;51.654;14.238;2023-02-22T07:46:27;100625.44;;;6.37;100.00
19210;BME280;9738;51.654;14.238;2023-02-22T07:48:54;100623.16;;;6.43;100.00
19210;BME280;9738;51.654;14.238;2023-02-22T07:51:20;100621.72;;;6.50;100.00
19210;BME280;9738;51.654;14.238;2023-02-22T07:53:47;100630.25;;;6.54;100.00
19210;BME280;9738;51.654;14.238;2023-02-22T07:56:12;100615.44;;;6.63;100.00
19210;BME280;9738;51.654;14.238;2023-02-22T07:58:39;100623.41;;;6.52;100.00
19210;BME280;9738;51.654;14.238;2023-02-22T08:01:04;100609.50;;;6.59;100.00
19210;BME280;9738;51.654;14.238;2023-02-22T08:03:32;100624.13;;;6.65;100.00
19210;BME280;9738;51.654;14.238;2023-02-22T08:06:04;100607.22;;;6.66;100.00
19210;BME280;9738;51.654;14.238;2023-02-22T08:08:30;100617.97;;;6.75;100.00
19210;BME280;9738;51.654;14.238;2023-02-22T08:10:56;100620.22;;;6.80;100.00
19210;BME280;9738;51.654;14.238;2023-02-22T08:13:23;100617.47;;;6.82;100.00
19210;BME280;9738;51.654;14.238;2023-02-22T08:15:50;100613.72;;;6.73;100.00
19210;BME280;9738;51.654;14.238;2023-02-22T08:18:18;100614.13;;;6.68;100.00
19210;BME280;9738;51.654;14.238;2023-02-22T08:20:47;100611.31;;;6.70;100.00
19210;BME280;9738;51.654;14.238;2023-02-22T08:23:14;100612.03;;;6.72;100.00
19210;BME280;9738;51.654;14.238;2023-02-22T08:25:40;100611.81;;;6.75;100.00
19210;BME280;9738;51.654;14.238;2023-02-22T08:28:10;100609.38;;;6.83;100.00
19210;BME280;9738;51.654;14.238;2023-02-22T08:30:37;100609.13;;;6.86;100.00
19210;BME280;9738;51.654;14.238;2023-02-22T08:33:03;100606.56;;;6.96;100.00
19210;BME280;9738;51.654;14.238;2023-02-22T08:35:31;100617.69;;;7.01;100.00
19210;BME280;9738;51.654;14.238;2023-02-22T08:38:00;100614.75;;;7.04;100.00
19210;BME280;9738;51.654;14.238;2023-02-22T08:40:28;100612.94;;;7.04;100.00
19210;BME280;9738;51.654;14.238;2023-02-22T08:42:56;100614.53;;;6.96;100.00
19210;BME280;9738;51.654;14.238;2023-02-22T08:45:22;100611.28;;;6.92;100.00
19210;BME280;9738;51.654;14.238;2023-02-22T08:47:49;100603.31;;;6.92;100.00
19210;BME280;9738;51.654;14.238;2023-02-22T08:50:18;100599.94;;;6.90;100.00
19210;BME280;9738;51.654;14.238;2023-02-22T08:52:44;100603.72;;;6.88;100.00
19210;BME280;9738;51.654;14.238;2023-02-22T08:55:10;100605.59;;;6.97;100.00
19210;BME280;9738;51.654;14.238;2023-02-22T08:57:36;100608.13;;;6.98;100.00
19210;BME280;9738;51.654;14.238;2023-02-22T09:00:05;100600.78;;;7.02;100.00
19210;BME280;9738;51.654;14.238;2023-02-22T09:02:31;100604.81;;;7.17;100.00
19210;BME280;9738;51.654;14.238;2023-02-22T09:04:57;100604.75;;;7.08;100.00
19210;BME280;9738;51.654;14.238;2023-02-22T09:07:23;100606.16;;;7.12;100.00
19210;BME280;9738;51.654;14.238;2023-02-22T09:09:49;100603.00;;;7.18;100.00
19210;BME280;9738;51.654;14.238;2023-02-22T09:12:15;100603.00;;;7.18;100.00
19210;BME280;9738;51.654;14.238;2023-02-22T09:14:41;100600.81;;;7.23;100.00
19210;BME280;9738;51.654;14.238;2023-02-22T09:17:07;100601.78;;;7.33;100.00
19210;BME280;9738;51.654;14.238;2023-02-22T09:19:34;100608.84;;;7.44;100.00
19210;BME280;9738;51.654;14.238;2023-02-22T09:21:59;100602.81;;;7.42;100.00
19210;BME280;9738;51.654;14.238;2023-02-22T09:24:26;100604.03;;;7.38;100.00
19210;BME280;9738;51.654;14.238;2023-02-22T09:26:52;100608.97;;;7.42;100.00
19210;BME280;9738;51.654;14.238;2023-02-22T09:29:20;100608.72;;;7.45;100.00
19210;BME280;9738;51.654;14.238;2023-02-22T09:31:51;100614.03;;;7.45;100.00
19210;BME280;9738;51.654;14.238;2023-02-22T09:34:19;100610.59;;;7.34;100.00
19210;BME280;9738;51.654;14.238;2023-02-22T09:36:46;100601.50;;;7.36;100.00
19210;BME280;9738;51.654;14.238;2023-02-22T09:39:13;100609.22;;;7.39;100.00
19210;BME280;9738;51.654;14.238;2023-02-22T09:46:56;100606.13;;;7.55;100.00
19210;BME280;9738;51.654;14.238;2023-02-22T09:49:28;100604.06;;;7.58;100.00
19210;BME280;9738;51.654;14.238;2023-02-22T09:54:31;100608.28;;;7.61;100.00
19210;BME280;9738;51.654;14.238;2023-02-22T09:57:03;100595.06;;;7.71;100.00
19210;BME280;9738;51.654;14.238;2023-02-22T09:59:36;100601.81;;;7.75;100.00
19210;BME280;9738;51.654;14.238;2023-02-22T10:02:27;100601.03;;;7.84;100.00
19210;BME280;9738;51.654;14.238;2023-02-22T10:05:15;100593.53;;;7.89;100.00
19210;BME280;9738;51.654;14.238;2023-02-22T10:07:57;100591.81;;;7.88;100.00
19210;BME280;9738;51.654;14.238;2023-02-22T10:10:25;100589.94;;;7.79;100.00
19210;BME280;9738;51.654;14.238;2023-02-22T10:13:14;100589.94;;;7.79;100.00
19210;BME280;9738;51.654;14.238;2023-02-22T10:16:00;100597.84;;;7.69;100.00
19210;BME280;9738;51.654;14.238;2023-02-22T10:18:55;100595.88;;;7.50;100.00
19210;BME280;9738;51.654;14.238;2023-02-22T10:21:34;100599.31;;;7.41;100.00
19210;BME280;9738;51.654;14.238;2023-02-22T10:24:16;100597.38;;;7.43;100.00
19210;BME280;9738;51.654;14.238;2023-02-22T10:26:47;100598.94;;;7.46;100.00
19210;BME280;9738;51.654;14.238;2023-02-22T10:29:29;100591.63;;;7.59;100.00
19210;BME280;9738;51.654;14.238;2023-02-22T10:31:59;100593.25;;;7.71;100.00
19210;BME280;9738;51.654;14.238;2023-02-22T10:34:30;100597.72;;;7.71;100.00
19210;BME280;9738;51.654;14.238;2023-02-22T10:39:42;100593.31;;;7.81;100.00
19210;BME280;9738;51.654;14.238;2023-02-22T10:42:09;100590.28;;;7.65;100.00
19210;BME280;9738;51.654;14.238;2023-02-22T10:44:36;100589.50;;;7.74;100.00
19210;BME280;9738;51.654;14.238;2023-02-22T10:47:14;100592.09;;;7.85;100.00
19210;BME280;9738;51.654;14.238;2023-02-22T10:49:43;100580.28;;;7.78;100.00
19210;BME280;9738;51.654;14.238;2023-02-22T10:52:22;100588.16;;;7.47;100.00
19210;BME280;9738;51.654;14.238;2023-02-22T10:54:49;100580.44;;;7.44;100.00
19210;BME280;9738;51.654;14.238;2023-02-22T10:57:23;100580.56;;;7.43;100.00
19210;BME280;9738;51.654;14.238;2023-02-22T10:59:50;100571.97;;;7.50;100.00
19210;BME280;9738;51.654;14.238;2023-02-22T11:02:19;100580.91;;;7.49;100.00
19210;BME280;9738;51.654;14.238;2023-02-22T11:04:51;100575.41;;;7.62;100.00
19210;BME280;9738;51.654;14.238;2023-02-22T11:07:26;100574.06;;;7.68;100.00
19210;BME280;9738;51.654;14.238;2023-02-22T11:10:02;100574.91;;;7.89;100.00
19210;BME280;9738;51.654;14.238;2023-02-22T11:15:26;100567.59;;;8.12;100.00
19210;BME280;9738;51.654;14.238;2023-02-22T11:17:55;100577.13;;;7.84;100.00
19210;BME280;9738;51.654;14.238;2023-02-22T11:20:28;100577.41;;;7.70;100.00
19210;BME280;9738;51.654;14.238;2023-02-22T11:23:01;100567.44;;;7.62;100.00
19210;BME280;9738;51.654;14.238;2023-02-22T11:25:36;100566.03;;;7.79;100.00
19210;BME280;9738;51.654;14.238;2023-02-22T11:28:07;100567.38;;;7.73;100.00
19210;BME280;9738;51.654;14.238;2023-02-22T11:30:34;100559.53;;;7.72;100.00
19210;BME280;9738;51.654;14.238;2023-02-22T11:35:53;100556.94;;;8.02;100.00
19210;BME280;9738;51.654;14.238;2023-02-22T11:38:29;100556.97;;;8.12;100.00
19210;BME280;9738;51.654;14.238;2023-02-22T11:41:13;100549.19;;;8.30;100.00
19210;BME280;9738;51.654;14.238;2023-02-22T11:43:50;100549.75;;;8.24;100.00
19210;BME280;9738;51.654;14.238;2023-02-22T11:46:21;100548.38;;;8.29;100.00
19210;BME280;9738;51.654;14.238;2023-02-22T11:49:03;100542.75;;;8.23;100.00
19210;BME280;9738;51.654;14.238;2023-02-22T11:56:35;100543.56;;;7.93;100.00
19210;BME280;9738;51.654;14.238;2023-02-22T11:59:14;100539.38;;;7.90;100.00
19210;BME280;9738;51.654;14.238;2023-02-22T12:01:54;100540.47;;;8.18;100.00
19210;BME280;9738;51.654;14.238;2023-02-22T12:04:38;100538.50;;;8.20;100.00
19210;BME280;9738;51.654;14.238;2023-02-22T12:08:14;100539.72;;;8.06;100.00
19210;BME280;9738;51.654;14.238;2023-02-22T12:18:17;100527.47;;;8.25;100.00
19210;BME280;9738;51.654;14.238;2023-02-22T12:20:56;100524.75;;;8.46;100.00
19210;BME280;9738;51.654;14.238;2023-02-22T12:23:34;100527.91;;;8.60;100.00
19210;BME280;9738;51.654;14.238;2023-02-22T12:26:24;100525.69;;;8.75;100.00
19210;BME280;9738;51.654;14.238;2023-02-22T12:28:57;100519.81;;;8.81;100.00
19210;BME280;9738;51.654;14.238;2023-02-22T12:31:32;100524.16;;;8.82;100.00
19210;BME280;9738;51.654;14.238;2023-02-22T12:34:07;100521.53;;;8.92;100.00
19210;BME280;9738;51.654;14.238;2023-02-22T12:36:40;100528.66;;;9.01;100.00
19210;BME280;9738;51.654;14.238;2023-02-22T12:42:00;100525.31;;;9.18;100.00
19210;BME280;9738;51.654;14.238;2023-02-22T12:44:33;100523.91;;;9.24;100.00
19210;BME280;9738;51.654;14.238;2023-02-22T12:47:00;100527.97;;;9.28;100.00
19210;BME280;9738;51.654;14.238;2023-02-22T12:49:35;100530.22;;;9.33;100.00
19210;BME280;9738;51.654;14.238;2023-02-22T12:52:13;100528.38;;;9.14;100.00
19210;BME280;9738;51.654;14.238;2023-02-22T12:55:00;100517.47;;;9.17;100.00
19210;BME280;9738;51.654;14.238;2023-02-22T12:57:55;100522.78;;;9.07;100.00
19210;BME280;9738;51.654;14.238;2023-02-22T13:03:21;100519.41;;;9.05;100.00
19210;BME280;9738;51.654;14.238;2023-02-22T13:11:49;100511.16;;;9.18;100.00
19210;BME280;9738;51.654;14.238;2023-02-22T13:17:15;100506.91;;;9.35;100.00
19210;BME280;9738;51.654;14.238;2023-02-22T13:19:53;100502.31;;;9.37;100.00
19210;BME280;9738;51.654;14.238;2023-02-22T13:22:45;100501.88;;;9.03;100.00
19210;BME280;9738;51.654;14.238;2023-02-22T13:25:25;100508.47;;;8.79;100.00
19210;BME280;9738;51.654;14.238;2023-02-22T13:27:58;100506.31;;;8.63;100.00
19210;BME280;9738;51.654;14.238;2023-02-22T13:30:38;100506.03;;;8.57;100.00
19210;BME280;9738;51.654;14.238;2023-02-22T13:33:12;100504.50;;;8.54;100.00
19210;BME280;9738;51.654;14.238;2023-02-22T13:44:27;100502.97;;;8.71;100.00
19210;BME280;9738;51.654;14.238;2023-02-22T13:52:17;100500.56;;;8.49;100.00
19210;BME280;9738;51.654;14.238;2023-02-22T13:54:50;100500.84;;;8.55;100.00
19210;BME280;9738;51.654;14.238;2023-02-22T13:57:23;100497.63;;;8.61;100.00
19210;BME280;9738;51.654;14.238;2023-02-22T14:11:05;100491.09;;;9.04;100.00
19210;BME280;9738;51.654;14.238;2023-02-22T14:16:27;100478.63;;;9.05;100.00
19210;BME280;9738;51.654;14.238;2023-02-22T14:19:11;100473.72;;;9.10;100.00
19210;BME280;9738;51.654;14.238;2023-02-22T14:21:57;100481.69;;;9.19;100.00
19210;BME280;9738;51.654;14.238;2023-02-22T14:24:29;100477.06;;;9.21;100.00
19210;BME280;9738;51.654;14.238;2023-02-22T14:27:04;100479.31;;;9.26;100.00
19210;BME280;9738;51.654;14.238;2023-02-22T14:29:31;100478.16;;;9.29;100.00
19210;BME280;9738;51.654;14.238;2023-02-22T14:32:08;100485.47;;;9.27;100.00